createdAt,value
2018-08-28T00:00:14.536Z,4.10
2018-08-28T00:02:42.821Z,3.93
2018-08-28T00:05:11.048Z,4.10
2018-08-28T00:07:39.316Z,4.00
2018-08-28T00:10:07.547Z,3.93
2018-08-28T00:12:35.780Z,4.13
2018-08-28T00:15:04.076Z,4.23
2018-08-28T00:17:32.312Z,4.20
2018-08-28T00:20:00.504Z,4.13
2018-08-28T00:22:28.781Z,4.10
2018-08-28T00:24:56.992Z,4.00
2018-08-28T00:27:25.220Z,4.10
2018-08-28T00:29:53.445Z,4.53
2018-08-28T00:32:21.429Z,4.07
2018-08-28T00:34:49.366Z,4.50
2018-08-28T00:37:17.308Z,3.80
2018-08-28T00:39:45.273Z,4.47
2018-08-28T00:42:13.237Z,4.13
2018-08-28T00:44:41.240Z,4.67
2018-08-28T00:47:09.271Z,4.40
2018-08-28T00:49:37.216Z,4.50
2018-08-28T00:52:05.492Z,4.00
2018-08-28T00:54:33.509Z,4.60
2018-08-28T00:57:01.549Z,4.20
2018-08-28T00:59:29.504Z,4.30
2018-08-28T01:01:57.467Z,4.20
2018-08-28T01:04:25.446Z,4.10
2018-08-28T01:06:53.408Z,4.17
2018-08-28T01:09:21.393Z,4.87
2018-08-28T01:11:49.401Z,4.57
2018-08-28T01:14:17.337Z,4.30
2018-08-28T01:16:45.349Z,4.33
2018-08-28T01:19:13.317Z,4.10
2018-08-28T01:21:41.286Z,4.20
2018-08-28T01:24:09.312Z,4.00
2018-08-28T01:26:37.269Z,4.13
2018-08-28T01:29:05.236Z,4.03
2018-08-28T01:31:33.182Z,4.40
2018-08-28T01:34:01.157Z,4.30
2018-08-28T01:36:29.140Z,4.30
2018-08-28T01:38:57.106Z,4.20
2018-08-28T01:41:25.071Z,4.40
2018-08-28T01:43:53.045Z,4.43
2018-08-28T01:46:21.001Z,4.00
2018-08-28T01:48:49.029Z,4.10
2018-08-28T01:51:17.024Z,4.37
2018-08-28T01:53:44.954Z,4.20
2018-08-28T01:56:13.122Z,4.50
2018-08-28T01:58:41.121Z,4.80
2018-08-28T02:01:09.077Z,4.37
2018-08-28T02:03:37.076Z,4.80
2018-08-28T02:06:05.190Z,4.43
2018-08-28T02:08:33.194Z,4.43
2018-08-28T02:11:01.239Z,4.60
2018-08-28T02:13:29.206Z,4.20
2018-08-28T02:15:57.162Z,4.20
2018-08-28T02:18:25.171Z,4.60
2018-08-28T02:20:53.138Z,4.60
2018-08-28T02:23:21.098Z,4.17
2018-08-28T02:25:49.115Z,4.50
2018-08-28T02:28:17.088Z,4.93
2018-08-28T02:30:45.067Z,4.50
2018-08-28T02:33:13.023Z,4.97
2018-08-28T02:35:40.978Z,4.60
2018-08-28T02:38:08.973Z,4.83
2018-08-28T02:40:36.930Z,4.70
2018-08-28T02:43:04.974Z,5.27
2018-08-28T02:45:32.974Z,4.70
2018-08-28T02:48:00.951Z,4.90
2018-08-28T02:50:28.947Z,4.77
2018-08-28T02:52:56.987Z,5.13
2018-08-28T02:55:24.962Z,5.37
2018-08-28T02:57:52.922Z,5.13
2018-08-28T03:00:20.911Z,4.70
2018-08-28T03:02:48.906Z,4.53
2018-08-28T03:05:16.983Z,5.43
2018-08-28T03:07:44.943Z,5.20
2018-08-28T03:10:12.911Z,4.77
2018-08-28T03:12:41.359Z,5.33
2018-08-28T03:15:09.371Z,5.57
2018-08-28T03:17:37.327Z,5.33
2018-08-28T03:20:05.303Z,5.53
2018-08-28T03:22:33.255Z,5.63
2018-08-28T03:25:01.547Z,5.53
2018-08-28T03:27:29.566Z,5.47
2018-08-28T03:29:57.507Z,5.17
2018-08-28T03:32:25.457Z,5.17
2018-08-28T03:34:53.487Z,5.57
2018-08-28T03:37:21.443Z,5.90
2018-08-28T03:39:49.383Z,5.30
2018-08-28T03:42:17.339Z,5.70
2018-08-28T03:44:45.324Z,5.97
2018-08-28T03:47:13.266Z,5.97
2018-08-28T03:49:41.208Z,6.07
2018-08-28T03:52:09.172Z,5.60
2018-08-28T03:54:37.171Z,6.10
2018-08-28T03:57:05.115Z,6.00
2018-08-28T03:59:33.120Z,6.10
2018-08-28T04:02:01.102Z,6.13
2018-08-28T04:04:29.047Z,5.70
2018-08-28T04:06:57.003Z,6.00
2018-08-28T04:09:24.971Z,6.07
2018-08-28T04:11:52.947Z,6.03
2018-08-28T04:14:20.914Z,5.90
2018-08-28T04:16:48.888Z,6.27
2018-08-28T04:19:16.934Z,6.47
2018-08-28T04:21:47.508Z,6.20
2018-08-28T04:24:15.653Z,6.33
2018-08-28T04:26:43.984Z,6.83
2018-08-28T04:29:12.400Z,5.80
2018-08-28T04:31:40.745Z,6.37
2018-08-28T04:34:08.745Z,6.70
2018-08-28T04:36:36.711Z,6.47
2018-08-28T04:39:05.483Z,6.93
2018-08-28T04:41:33.451Z,6.03
2018-08-28T04:44:01.482Z,6.87
2018-08-28T04:46:29.488Z,7.03
2018-08-28T04:48:57.670Z,7.00
2018-08-28T04:51:25.778Z,6.97
2018-08-28T04:53:53.735Z,6.50
2018-08-28T04:56:21.759Z,7.00
2018-08-28T04:58:49.754Z,6.87
2018-08-28T05:01:17.756Z,7.20
2018-08-28T05:03:45.731Z,7.33
2018-08-28T05:06:13.696Z,7.33
2018-08-28T05:08:41.675Z,7.43
2018-08-28T05:11:09.651Z,7.23
2018-08-28T05:13:37.648Z,7.13
2018-08-28T05:16:05.656Z,7.80
2018-08-28T05:18:33.711Z,7.27
2018-08-28T05:21:01.696Z,7.60
2018-08-28T05:23:29.707Z,8.57
2018-08-28T05:25:57.703Z,7.43
2018-08-28T05:28:25.655Z,7.77
2018-08-28T05:30:53.628Z,7.73
2018-08-28T05:33:21.588Z,7.30
2018-08-28T05:35:49.549Z,7.60
2018-08-28T05:38:17.656Z,7.50
2018-08-28T05:40:45.619Z,7.47
2018-08-28T05:43:13.604Z,8.07
2018-08-28T05:45:41.584Z,7.77
2018-08-28T05:48:09.552Z,7.57
2018-08-28T05:50:37.543Z,7.83
2018-08-28T05:53:05.516Z,7.47
2018-08-28T05:55:33.512Z,7.97
2018-08-28T05:58:01.500Z,7.50
2018-08-28T06:00:29.586Z,7.90
2018-08-28T06:02:57.567Z,7.37
2018-08-28T06:05:25.529Z,9.40
2018-08-28T06:07:53.480Z,8.00
2018-08-28T06:10:21.516Z,8.37
2018-08-28T06:12:49.472Z,7.60
2018-08-28T06:15:17.452Z,8.43
2018-08-28T06:17:45.433Z,8.50
2018-08-28T06:20:13.367Z,8.73
2018-08-28T06:22:41.376Z,8.90
2018-08-28T06:25:09.340Z,8.50
2018-08-28T06:27:37.349Z,8.73
2018-08-28T06:30:05.443Z,8.97
2018-08-28T06:32:33.417Z,8.47
2018-08-28T06:35:01.431Z,8.80
2018-08-28T06:37:29.592Z,8.80
2018-08-28T06:39:57.605Z,9.00
2018-08-28T06:42:25.601Z,8.77
2018-08-28T06:44:53.549Z,8.73
2018-08-28T06:47:21.561Z,8.50
2018-08-28T06:49:49.539Z,9.00
2018-08-28T06:52:17.514Z,9.07
2018-08-28T06:54:45.485Z,9.07
2018-08-28T06:57:13.770Z,9.40
2018-08-28T06:59:42.022Z,9.57
2018-08-28T07:02:09.990Z,9.10
2018-08-28T07:04:37.969Z,9.73
2018-08-28T07:07:06.017Z,9.90
2018-08-28T07:09:34.101Z,10.73
2018-08-28T07:12:02.221Z,9.60
2018-08-28T07:14:30.206Z,10.20
2018-08-28T07:16:58.215Z,14.63
2018-08-28T07:19:26.191Z,8.77
2018-08-28T07:21:54.276Z,9.40
2018-08-28T07:24:22.444Z,9.77
2018-08-28T07:26:50.460Z,10.13
2018-08-28T07:29:18.425Z,9.87
2018-08-28T07:31:46.880Z,9.93
2018-08-28T07:34:14.817Z,10.27
2018-08-28T07:36:42.789Z,10.00
2018-08-28T07:39:10.750Z,9.77
2018-08-28T07:41:38.717Z,9.97
2018-08-28T07:44:06.690Z,9.17
2018-08-28T07:46:34.826Z,9.60
2018-08-28T07:49:02.913Z,9.60
2018-08-28T07:51:31.062Z,9.50
2018-08-28T07:53:59.255Z,9.97
2018-08-28T07:56:27.250Z,9.43
2018-08-28T07:58:55.282Z,10.03
2018-08-28T08:01:23.371Z,10.27
2018-08-28T08:03:51.223Z,10.30
2018-08-28T08:06:19.222Z,9.47
2018-08-28T08:08:47.242Z,9.27
2018-08-28T08:11:15.279Z,10.30
2018-08-28T08:13:43.248Z,10.47
2018-08-28T08:16:11.427Z,11.70
2018-08-28T08:18:39.319Z,9.37
2018-08-28T08:21:07.846Z,9.60
2018-08-28T08:23:36.082Z,10.20
2018-08-28T08:26:04.383Z,10.43
2018-08-28T08:28:32.674Z,10.23
2018-08-28T08:31:01.014Z,9.70
2018-08-28T08:33:29.254Z,10.47
2018-08-28T08:35:57.478Z,9.73
2018-08-28T08:38:25.723Z,9.93
2018-08-28T08:40:53.947Z,9.67
2018-08-28T08:43:21.966Z,9.73
2018-08-28T08:45:49.910Z,9.27
2018-08-28T08:48:17.951Z,9.53
2018-08-28T08:50:45.935Z,10.20
2018-08-28T08:53:13.963Z,8.93
2018-08-28T08:55:42.019Z,8.50
2018-08-28T08:58:10.001Z,8.90
2018-08-28T09:00:37.975Z,9.37
2018-08-28T09:03:05.918Z,9.83
2018-08-28T09:05:33.999Z,9.40
2018-08-28T09:08:02.023Z,8.40
2018-08-28T09:10:29.991Z,7.83
2018-08-28T09:12:58.022Z,9.13
2018-08-28T09:15:25.986Z,8.90
2018-08-28T09:17:53.999Z,9.27
2018-08-28T09:20:21.959Z,8.90
2018-08-28T09:22:49.971Z,9.20
2018-08-28T09:25:17.944Z,8.60
2018-08-28T09:27:45.925Z,7.80
2018-08-28T09:30:13.940Z,7.63
2018-08-28T09:32:42.005Z,7.87
2018-08-28T09:35:09.976Z,8.70
2018-08-28T09:37:37.925Z,8.20
2018-08-28T09:40:06.192Z,8.10
2018-08-28T09:42:34.224Z,9.17
2018-08-28T09:45:02.259Z,7.67
2018-08-28T09:47:30.221Z,8.80
2018-08-28T09:49:58.336Z,8.03
2018-08-28T09:52:26.234Z,8.70
2018-08-28T09:54:54.256Z,8.17
2018-08-28T09:57:22.224Z,7.90
2018-08-28T09:59:50.217Z,7.47
2018-08-28T10:02:18.313Z,7.23
2018-08-28T10:04:46.307Z,8.00
2018-08-28T10:07:14.253Z,7.10
2018-08-28T10:09:42.264Z,7.47
2018-08-28T10:12:10.317Z,7.23
2018-08-28T10:14:38.305Z,6.70
2018-08-28T10:17:06.267Z,6.90
2018-08-28T10:19:34.311Z,6.17
2018-08-28T10:22:02.431Z,6.73
2018-08-28T10:24:30.391Z,6.57
2018-08-28T10:26:58.370Z,5.93
2018-08-28T10:29:26.347Z,5.67
2018-08-28T10:31:54.375Z,5.97
2018-08-28T10:34:22.319Z,5.37
2018-08-28T10:36:50.279Z,5.30
2018-08-28T10:39:18.247Z,5.40
2018-08-28T10:41:46.214Z,5.53
2018-08-28T10:44:14.743Z,5.23
2018-08-28T10:46:42.894Z,5.20
2018-08-28T10:49:10.767Z,5.17
2018-08-28T10:51:38.739Z,5.10
2018-08-28T10:54:06.819Z,5.33
2018-08-28T10:56:34.815Z,5.60
2018-08-28T10:59:02.837Z,4.83
2018-08-28T11:01:30.883Z,5.13
2018-08-28T11:03:58.887Z,4.63
2018-08-28T11:06:26.863Z,4.60
2018-08-28T11:08:54.883Z,4.40
2018-08-28T11:11:22.843Z,4.70
2018-08-28T11:13:50.823Z,5.13
2018-08-28T11:16:18.791Z,4.87
2018-08-28T11:18:46.795Z,4.30
2018-08-28T11:21:14.731Z,4.33
2018-08-28T11:23:42.686Z,5.43
2018-08-28T11:26:10.643Z,4.70
2018-08-28T11:28:38.615Z,4.17
2018-08-28T11:31:06.627Z,4.70
2018-08-28T11:33:34.623Z,5.57
2018-08-28T11:36:02.717Z,5.03
2018-08-28T11:38:30.789Z,4.53
2018-08-28T11:40:58.668Z,4.40
2018-08-28T11:43:26.950Z,5.00
2018-08-28T11:45:55.340Z,4.43
2018-08-28T11:48:23.556Z,3.90
2018-08-28T11:50:51.807Z,3.93
2018-08-28T11:53:20.099Z,4.27
2018-08-28T11:55:48.331Z,4.17
2018-08-28T11:58:16.696Z,4.63
2018-08-28T12:00:45.061Z,7.37
2018-08-28T12:03:13.289Z,4.23
2018-08-28T12:05:41.489Z,3.80
2018-08-28T12:08:09.689Z,3.90
2018-08-28T12:10:37.981Z,4.23
2018-08-28T12:13:06.316Z,4.77
2018-08-28T12:15:34.521Z,4.80
2018-08-28T12:18:02.745Z,4.20
2018-08-28T12:20:31.072Z,4.80
2018-08-28T12:22:59.246Z,4.97
2018-08-28T12:25:27.206Z,5.40
2018-08-28T12:27:59.730Z,4.03
2018-08-28T12:30:27.809Z,3.90
2018-08-28T12:32:55.775Z,4.20
2018-08-28T12:35:23.761Z,4.07
2018-08-28T12:37:51.706Z,4.40
2018-08-28T12:40:19.685Z,4.07
2018-08-28T12:42:47.678Z,4.23
2018-08-28T12:45:15.638Z,4.40
2018-08-28T12:47:43.610Z,3.97
2018-08-28T12:50:11.614Z,3.97
2018-08-28T12:52:39.582Z,3.90
2018-08-28T12:55:07.623Z,4.17
2018-08-28T12:57:35.606Z,3.67
2018-08-28T13:00:03.578Z,3.90
2018-08-28T13:02:31.771Z,4.00
2018-08-28T13:04:59.637Z,4.20
2018-08-28T13:07:28.134Z,4.57
2018-08-28T13:09:56.036Z,4.37
2018-08-28T13:12:24.001Z,4.10
2018-08-28T13:14:52.020Z,3.87
2018-08-28T13:17:19.925Z,4.30
2018-08-28T13:19:47.942Z,5.20
2018-08-28T13:22:15.926Z,3.97
2018-08-28T13:24:44.011Z,3.97
2018-08-28T13:27:11.958Z,3.93
2018-08-28T13:29:39.914Z,4.13
2018-08-28T13:32:07.878Z,4.27
2018-08-28T13:34:35.839Z,3.80
2018-08-28T13:37:03.809Z,4.60
2018-08-28T13:39:31.774Z,4.40
2018-08-28T13:41:59.787Z,4.50
2018-08-28T13:44:27.757Z,4.43
2018-08-28T13:46:55.803Z,4.43
2018-08-28T13:49:23.745Z,4.47
2018-08-28T13:51:51.702Z,4.30
2018-08-28T13:54:19.673Z,4.50
2018-08-28T13:56:47.614Z,4.07
2018-08-28T13:59:15.563Z,4.50
2018-08-28T14:01:43.523Z,5.00
2018-08-28T14:04:11.479Z,4.07
2018-08-28T14:06:39.442Z,4.13
2018-08-28T14:09:07.411Z,4.80
2018-08-28T14:11:35.377Z,4.57
2018-08-28T14:14:03.390Z,4.97
2018-08-28T14:16:31.306Z,4.60
2018-08-28T14:18:59.274Z,5.30
2018-08-28T14:21:27.727Z,4.87
2018-08-28T14:23:55.694Z,5.10
2018-08-28T14:26:23.754Z,5.23
2018-08-28T14:28:51.773Z,4.60
2018-08-28T14:31:19.816Z,4.70
2018-08-28T14:33:47.789Z,4.67
2018-08-28T14:36:15.782Z,4.83
2018-08-28T14:38:43.758Z,4.80
2018-08-28T14:41:12.151Z,4.97
2018-08-28T14:43:40.129Z,5.10
2018-08-28T14:46:08.441Z,4.90
2018-08-28T14:48:36.802Z,4.63
2018-08-28T14:51:04.925Z,5.10
2018-08-28T14:53:32.925Z,4.87
2018-08-28T14:56:00.970Z,4.60
2018-08-28T14:58:29.058Z,4.80
2018-08-28T15:00:57.042Z,4.60
2018-08-28T15:03:25.005Z,4.30
2018-08-28T15:05:56.290Z,4.30
2018-08-28T15:08:24.262Z,4.50
2018-08-28T15:10:52.310Z,6.40
2018-08-28T15:13:20.362Z,5.00
2018-08-28T15:15:48.509Z,5.27
2018-08-28T15:18:16.452Z,4.93
2018-08-28T15:20:44.406Z,5.60
2018-08-28T15:23:12.377Z,4.57
2018-08-28T15:25:40.622Z,5.00
2018-08-28T15:28:08.828Z,5.57
2018-08-28T15:30:36.848Z,4.80
2018-08-28T15:33:04.797Z,4.83
2018-08-28T15:35:32.960Z,5.10
2018-08-28T15:38:01.260Z,5.30
2018-08-28T15:40:29.246Z,5.30
2018-08-28T15:42:57.342Z,5.77
2018-08-28T15:45:25.252Z,5.37
2018-08-28T15:47:53.212Z,6.40
2018-08-28T15:50:21.224Z,5.27
2018-08-28T15:52:49.168Z,5.20
2018-08-28T15:55:17.320Z,5.70
2018-08-28T15:57:45.496Z,6.20
2018-08-28T16:00:13.457Z,5.30
2018-08-28T16:02:42.260Z,5.40
2018-08-28T16:05:10.224Z,5.37
2018-08-28T16:07:38.177Z,5.00
2018-08-28T16:10:06.138Z,5.70
2018-08-28T16:12:34.181Z,5.43
2018-08-28T16:15:02.150Z,5.03
2018-08-28T16:17:30.135Z,5.40
2018-08-28T16:19:58.136Z,5.37
2018-08-28T16:22:31.557Z,6.40
2018-08-28T16:24:59.539Z,6.00
2018-08-28T16:27:27.521Z,5.30
2018-08-28T16:29:55.592Z,5.57
2018-08-28T16:32:23.803Z,5.93
2018-08-28T16:34:51.738Z,5.63
2018-08-28T16:37:19.726Z,5.70
2018-08-28T16:39:47.710Z,5.87
2018-08-28T16:42:15.673Z,7.40
2018-08-28T16:44:43.721Z,6.43
2018-08-28T16:47:11.673Z,5.70
2018-08-28T16:49:39.767Z,5.63
2018-08-28T16:52:08.265Z,5.87
2018-08-28T16:54:36.229Z,5.77
2018-08-28T16:57:04.502Z,8.13
2018-08-28T16:59:32.478Z,5.53
2018-08-28T17:02:00.491Z,5.93
2018-08-28T17:04:28.527Z,5.97
2018-08-28T17:06:56.504Z,5.13
2018-08-28T17:09:24.453Z,6.00
2018-08-28T17:11:52.402Z,6.10
2018-08-28T17:14:20.435Z,5.50
2018-08-28T17:16:48.435Z,6.00
2018-08-28T17:19:16.436Z,6.83
2018-08-28T17:21:44.405Z,7.80
2018-08-28T17:24:12.505Z,7.00
2018-08-28T17:26:40.506Z,7.17
2018-08-28T17:29:08.494Z,7.43
2018-08-28T17:31:36.675Z,6.30
2018-08-28T17:34:04.725Z,6.20
2018-08-28T17:36:32.710Z,6.17
2018-08-28T17:39:00.934Z,6.27
2018-08-28T17:41:28.982Z,5.70
2018-08-28T17:43:56.998Z,9.17
2018-08-28T17:46:24.966Z,6.10
2018-08-28T17:48:53.026Z,6.10
2018-08-28T17:51:21.263Z,6.43
2018-08-28T17:53:49.322Z,6.97
2018-08-28T17:56:17.287Z,6.90
2018-08-28T17:58:45.243Z,6.87
2018-08-28T18:01:13.290Z,6.30
2018-08-28T18:03:41.263Z,7.17
2018-08-28T18:06:09.287Z,6.53
2018-08-28T18:08:37.256Z,6.67
2018-08-28T18:11:05.199Z,6.90
2018-08-28T18:13:33.219Z,6.90
2018-08-28T18:16:01.295Z,6.47
2018-08-28T18:18:29.278Z,6.17
2018-08-28T18:20:57.228Z,7.57
2018-08-28T18:23:25.300Z,7.40
2018-08-28T18:25:53.276Z,8.07
2018-08-28T18:28:21.248Z,7.73
2018-08-28T18:30:49.224Z,7.40
2018-08-28T18:33:17.183Z,7.13
2018-08-28T18:35:45.165Z,7.30
2018-08-28T18:38:13.260Z,8.03
2018-08-28T18:40:41.584Z,8.03
2018-08-28T18:43:09.572Z,7.67
2018-08-28T18:45:37.827Z,8.13
2018-08-28T18:48:05.820Z,8.30
2018-08-28T18:50:33.792Z,8.03
2018-08-28T18:53:01.759Z,7.70
2018-08-28T18:55:29.791Z,8.20
2018-08-28T18:57:57.763Z,7.93
2018-08-28T19:00:25.713Z,7.70
2018-08-28T19:02:53.773Z,7.97
2018-08-28T19:05:21.699Z,8.67
2018-08-28T19:07:49.855Z,8.47
2018-08-28T19:10:17.767Z,8.30
2018-08-28T19:12:46.068Z,8.10
2018-08-28T19:15:14.047Z,8.10
2018-08-28T19:17:42.099Z,7.97
2018-08-28T19:20:10.120Z,7.60
2018-08-28T19:22:38.112Z,8.10
2018-08-28T19:25:06.164Z,7.80
2018-08-28T19:27:34.124Z,8.33
2018-08-28T19:30:02.072Z,8.00
2018-08-28T19:32:30.037Z,7.40
2018-08-28T19:34:58.036Z,7.60
2018-08-28T19:37:26.053Z,7.40
2018-08-28T19:39:54.017Z,8.67
2018-08-28T19:42:22.040Z,7.33
2018-08-28T19:44:49.980Z,7.37
2018-08-28T19:47:18.129Z,7.93
2018-08-28T19:49:46.152Z,8.07
2018-08-28T19:52:14.057Z,7.07
2018-08-28T19:54:42.045Z,7.57
2018-08-28T19:57:10.037Z,7.30
2018-08-28T19:59:38.009Z,7.73
2018-08-28T20:02:06.013Z,7.80
2018-08-28T20:04:34.087Z,7.00
2018-08-28T20:07:02.048Z,8.47
2018-08-28T20:09:30.188Z,7.93
2018-08-28T20:11:58.173Z,7.67
2018-08-28T20:14:26.219Z,8.30
2018-08-28T20:16:54.197Z,7.60
2018-08-28T20:19:22.152Z,8.27
2018-08-28T20:21:50.117Z,7.57
2018-08-28T20:24:18.076Z,7.27
2018-08-28T20:26:46.121Z,7.07
2018-08-28T20:29:14.068Z,7.77
2018-08-28T20:31:42.041Z,8.27
2018-08-28T20:34:10.061Z,7.93
2018-08-28T20:36:38.049Z,7.57
2018-08-28T20:39:06.288Z,7.80
2018-08-28T20:41:34.558Z,8.70
2018-08-28T20:44:02.541Z,7.97
2018-08-28T20:46:30.566Z,7.60
2018-08-28T20:48:58.533Z,8.30
2018-08-28T20:51:26.541Z,8.43
2018-08-28T20:53:54.522Z,8.03
2018-08-28T20:56:22.501Z,8.00
2018-08-28T20:58:50.453Z,8.00
2018-08-28T21:01:18.442Z,8.67
2018-08-28T21:03:46.433Z,8.23
2018-08-28T21:06:14.387Z,8.70
2018-08-28T21:08:42.334Z,8.27
2018-08-28T21:11:10.298Z,7.60
2018-08-28T21:13:38.270Z,8.57
2018-08-28T21:16:06.349Z,8.17
2018-08-28T21:18:34.346Z,7.80
2018-08-28T21:21:02.326Z,8.00
2018-08-28T21:23:30.310Z,8.20
2018-08-28T21:25:58.293Z,8.13
2018-08-28T21:28:26.361Z,8.53
2018-08-28T21:30:54.560Z,8.00
2018-08-28T21:33:22.786Z,8.50
2018-08-28T21:35:51.071Z,7.87
2018-08-28T21:38:19.173Z,7.63
2018-08-28T21:40:47.421Z,8.27
2018-08-28T21:43:15.662Z,8.30
2018-08-28T21:45:43.906Z,8.00
2018-08-28T21:48:12.151Z,7.73
2018-08-28T21:50:40.358Z,8.07
2018-08-28T21:53:08.594Z,7.50
2018-08-28T21:55:36.818Z,8.90
2018-08-28T21:58:04.902Z,8.00
2018-08-28T22:00:33.096Z,8.30
2018-08-28T22:03:01.090Z,7.50
2018-08-28T22:05:30.485Z,7.97
2018-08-28T22:07:59.549Z,8.50
2018-08-28T22:10:27.792Z,8.10
2018-08-28T22:12:55.908Z,7.90
2018-08-28T22:15:23.881Z,7.90
2018-08-28T22:17:52.237Z,7.90
2018-08-28T22:20:20.234Z,7.50
2018-08-28T22:22:48.197Z,7.77
2018-08-28T22:25:16.261Z,7.90
2018-08-28T22:27:44.273Z,7.37
2018-08-28T22:30:12.426Z,7.10
2018-08-28T22:32:41.346Z,7.63
2018-08-28T22:35:09.313Z,8.53
2018-08-28T22:37:37.273Z,7.83
2018-08-28T22:40:06.454Z,7.47
2018-08-28T22:42:34.405Z,7.60
2018-08-28T22:45:02.390Z,7.47
2018-08-28T22:47:30.369Z,8.10
2018-08-28T22:49:58.338Z,7.80
2018-08-28T22:52:26.290Z,8.00
2018-08-28T22:54:54.259Z,9.10
2018-08-28T22:57:22.203Z,7.53
2018-08-28T22:59:50.173Z,7.73
2018-08-28T23:02:18.169Z,7.97
2018-08-28T23:04:46.134Z,8.13
2018-08-28T23:07:14.098Z,8.10
2018-08-28T23:09:42.106Z,8.40
2018-08-28T23:12:10.071Z,8.40
2018-08-28T23:14:38.034Z,7.47
2018-08-28T23:17:06.001Z,7.73
2018-08-28T23:19:33.950Z,7.50
2018-08-28T23:22:01.962Z,8.07
2018-08-28T23:24:30.018Z,8.07
2018-08-28T23:26:57.986Z,8.90
2018-08-28T23:29:25.921Z,7.90
2018-08-28T23:31:53.890Z,8.00
2018-08-28T23:34:21.837Z,7.67
2018-08-28T23:36:49.931Z,6.77
2018-08-28T23:39:17.929Z,7.90
2018-08-28T23:41:45.898Z,7.90
2018-08-28T23:44:13.853Z,7.43
2018-08-28T23:46:41.834Z,7.80
2018-08-28T23:49:09.770Z,7.57
2018-08-28T23:51:37.713Z,7.50
2018-08-28T23:54:05.835Z,7.43
2018-08-28T23:56:33.795Z,7.37
2018-08-28T23:59:01.754Z,7.13
